Main page
METAR-TAF:

METAR-TAF

Airports :

Guaraní International Airport

Ciudad Del Este, Paraguay

latitude: 25-27-20S, longitude: 054-50-37W, elevation: 257 m

Current weather observation

The report was made 29 minutes ago, at 00:00 UTC
Calm wind
Temperature 13°C
Humidity 82%
Pressure 1022 hPa
Visibility 10 km or more
no clouds below 1500 m and no cumulonimbus

METAR: SGES 240000Z 00000KT CAVOK 13/10 Q1022

Time: 20:29 (00:29 UTC)

Forecast

The report was made 2 hours and 9 minutes ago, at 22:20 UTC
Forecast valid from 24 at 00 UTC to 25 at 00 UTC
Wind 4 kt from the South/Southwest
Visibility 10 km or more
no clouds below 1500 m and no cumulonimbus
Probability 30%
from 24 at 08 UTC to 24 at 10 UTC
Wind kt from the North
Visibility: 5000 m
mist
Becoming
from 24 at 12 UTC to 24 at 14 UTC
Wind 6 kt from the South/Southeast
Visibility 10 km or more
no clouds below 1500 m and no cumulonimbus

TAF: SGES 232220Z 2400/2500 21004KT CAVOK TX23/2419Z TN07/2409Z PROB30 2408/2410 00000KT 5000 BR NSC BECMG 2412/2414 15006KT CAVOK

Weather observations and forecasts of more than 4000 airports (METAR and TAF reports).

The available stations are represented by yellow and red dots on the map.

Hover mouse over dot to see the name of the station.

Then click to see weather observations and forecasts.

To change the map : click on the green buttons with a black cross to zoom in, on the green button with a dash to zoom out, or on the green arrows for adjacent maps.


METAR-TAF: